Time;durP1;ratioP1;P1;durP2;ratioP2;P2;SDS_P1;SDS_P2;PMS_P1;PMS_P2;Temp;Humidity;BMP_temperature;BMP_pressure;BME280_temperature;BME280_humidity;BME280_pressure;Samples;Min_cycle;Max_cycle;Signal;HPM_P1;HPM_P2
2023/05/03 00:00:19;;;;;;;7.45;4.70;;;6.00;99.90;;;;;;5103182;27;20140;-59
2023/05/03 00:02:45;;;;;;;9.27;4.72;;;6.00;99.90;;;;;;5103569;27;20039;-58
2023/05/03 00:05:13;;;;;;;7.95;4.72;;;6.00;99.90;;;;;;5110603;27;20043;-59
2023/05/03 00:07:41;;;;;;;7.88;4.57;;;5.90;99.90;;;;;;5102418;27;20070;-59
2023/05/03 00:10:09;;;;;;;8.98;4.80;;;5.90;99.90;;;;;;5090126;27;20036;-58
2023/05/03 00:12:36;;;;;;;7.85;5.00;;;5.70;99.90;;;;;;5110908;27;20031;-58
2023/05/03 00:15:02;;;;;;;8.77;5.35;;;5.80;99.90;;;;;;5109539;27;20466;-58
2023/05/03 00:17:28;;;;;;;9.30;4.63;;;5.90;99.90;;;;;;5108610;27;20035;-59
2023/05/03 00:19:55;;;;;;;9.57;5.20;;;5.80;99.90;;;;;;5104363;27;20092;-58
2023/05/03 00:22:21;;;;;;;8.52;4.93;;;5.80;99.90;;;;;;5104156;27;20107;-58
2023/05/03 00:24:48;;;;;;;9.10;4.85;;;5.80;99.90;;;;;;5111314;27;20441;-58
2023/05/03 00:27:14;;;;;;;7.43;4.60;;;5.80;99.90;;;;;;5099469;27;20464;-59
2023/05/03 00:29:39;;;;;;;8.45;4.88;;;5.70;99.90;;;;;;5102476;27;20127;-59
2023/05/03 00:32:05;;;;;;;9.32;4.95;;;5.70;99.90;;;;;;5095316;27;20042;-58
2023/05/03 00:34:31;;;;;;;10.45;5.20;;;5.70;99.90;;;;;;5104073;27;20066;-58
2023/05/03 00:36:57;;;;;;;9.88;5.13;;;5.70;99.90;;;;;;5102703;27;20114;-59
2023/05/03 00:39:23;;;;;;;10.30;5.35;;;5.60;99.90;;;;;;5102514;27;20036;-59
2023/05/03 00:41:48;;;;;;;10.45;5.13;;;5.60;99.90;;;;;;5103978;27;20355;-59
2023/05/03 00:44:14;;;;;;;8.50;5.20;;;5.60;99.90;;;;;;5096722;27;20322;-58
2023/05/03 00:46:39;;;;;;;7.20;5.28;;;5.40;99.90;;;;;;5097576;27;20055;-58
2023/05/03 00:49:05;;;;;;;9.10;5.18;;;5.60;99.90;;;;;;5099758;27;20046;-59
2023/05/03 00:51:31;;;;;;;13.38;5.38;;;5.70;99.90;;;;;;5080928;28;20043;-59
2023/05/03 00:53:57;;;;;;;8.65;4.70;;;5.70;99.90;;;;;;5103432;27;20574;-59
2023/05/03 00:56:24;;;;;;;10.45;4.88;;;5.70;99.90;;;;;;5108332;27;20046;-58
2023/05/03 00:58:54;;;;;;;9.48;4.82;;;5.70;99.90;;;;;;5113453;27;20825;-59
2023/05/03 01:01:20;;;;;;;6.60;4.25;;;5.60;99.90;;;;;;5092645;27;20040;-59
2023/05/03 01:03:46;;;;;;;7.95;5.38;;;5.50;99.90;;;;;;5101496;27;20128;-59
2023/05/03 01:06:36;;;;;;;6.80;4.60;;;5.50;99.90;;;;;;5095013;27;20036;-59
2023/05/03 01:09:09;;;;;;;6.80;4.63;;;5.50;99.90;;;;;;5097996;27;20035;-58
2023/05/03 01:11:46;;;;;;;9.98;4.85;;;5.40;99.90;;;;;;5103789;27;20103;-59
2023/05/03 01:14:27;;;;;;;8.65;4.85;;;5.40;99.90;;;;;;5092638;27;20067;-58
2023/05/03 01:16:59;;;;;;;5.97;4.65;;;5.30;99.90;;;;;;5100752;28;20625;-58
2023/05/03 01:19:32;;;;;;;8.38;4.10;;;5.40;99.90;;;;;;5100613;27;20056;-59
2023/05/03 01:22:23;;;;;;;8.93;4.82;;;5.40;99.90;;;;;;5082105;28;20749;-59
2023/05/03 01:24:58;;;;;;;11.82;5.03;;;5.40;99.90;;;;;;5116041;27;20035;-58
2023/05/03 01:27:24;;;;;;;9.25;5.18;;;5.40;99.90;;;;;;5090977;27;20036;-58
2023/05/03 01:29:50;;;;;;;11.63;5.13;;;5.30;99.90;;;;;;5103296;27;20047;-58
2023/05/03 01:32:22;;;;;;;7.32;4.65;;;5.30;99.90;;;;;;5105854;27;20083;-58
2023/05/03 01:34:58;;;;;;;5.57;3.33;;;5.30;99.90;;;;;;5110458;27;20042;-58
2023/05/03 01:37:24;;;;;;;5.47;4.40;;;5.20;99.90;;;;;;5109858;27;20047;-58
2023/05/03 01:39:55;;;;;;;9.57;4.63;;;5.20;99.90;;;;;;5100702;27;20039;-58
2023/05/03 01:42:23;;;;;;;9.63;5.00;;;5.10;99.90;;;;;;5104205;27;20457;-59
2023/05/03 01:44:49;;;;;;;9.93;5.63;;;5.10;99.90;;;;;;5105458;27;20035;-59
2023/05/03 01:47:15;;;;;;;8.70;5.13;;;5.10;99.90;;;;;;5102965;27;20943;-58
2023/05/03 01:49:41;;;;;;;9.15;5.50;;;5.20;99.90;;;;;;5103451;27;20039;-58
2023/05/03 01:52:06;;;;;;;8.55;5.15;;;5.10;99.90;;;;;;5096494;27;20142;-58
2023/05/03 01:54:32;;;;;;;10.90;5.25;;;5.10;99.90;;;;;;5102381;27;20046;-58
2023/05/03 01:56:57;;;;;;;12.40;5.20;;;5.20;99.90;;;;;;5099264;27;20046;-58
2023/05/03 01:59:23;;;;;;;7.68;4.40;;;5.40;99.90;;;;;;5102947;27;20727;-58
2023/05/03 02:01:48;;;;;;;9.85;4.72;;;5.30;99.90;;;;;;5104548;27;20467;-58
2023/05/03 02:04:14;;;;;;;8.43;4.93;;;5.40;99.90;;;;;;5106249;27;20450;-59
2023/05/03 02:06:40;;;;;;;9.45;5.18;;;5.40;99.90;;;;;;5101966;27;20775;-58
2023/05/03 02:09:05;;;;;;;11.45;5.25;;;5.30;99.90;;;;;;5102397;27;20043;-58
2023/05/03 02:11:31;;;;;;;12.18;5.28;;;5.40;99.90;;;;;;5101272;27;20041;-58
2023/05/03 02:13:56;;;;;;;10.95;5.15;;;5.50;99.90;;;;;;5091667;27;20126;-59
2023/05/03 02:16:22;;;;;;;9.98;5.13;;;5.60;99.90;;;;;;5101438;27;20712;-58
2023/05/03 02:18:47;;;;;;;8.25;4.68;;;5.40;99.90;;;;;;5101136;27;20509;-58
2023/05/03 02:21:13;;;;;;;8.48;5.35;;;5.30;99.90;;;;;;5113770;27;20395;-58
2023/05/03 02:23:39;;;;;;;8.25;5.00;;;5.40;99.90;;;;;;5102022;27;20383;-58
2023/05/03 02:26:05;;;;;;;8.70;5.28;;;5.30;99.90;;;;;;5099309;27;20073;-58
2023/05/03 02:28:30;;;;;;;9.07;4.78;;;5.30;99.90;;;;;;5096670;27;20043;-59
2023/05/03 02:30:56;;;;;;;9.25;4.70;;;5.30;99.90;;;;;;5098630;28;20064;-58
2023/05/03 02:33:21;;;;;;;8.20;5.03;;;5.30;99.90;;;;;;5101909;27;20043;-58
2023/05/03 02:35:47;;;;;;;9.50;4.82;;;5.20;99.90;;;;;;5097269;27;20083;-58
2023/05/03 02:38:13;;;;;;;11.15;4.93;;;5.10;99.90;;;;;;5096420;27;20055;-58
2023/05/03 02:40:38;;;;;;;7.20;4.60;;;5.00;99.90;;;;;;5099410;27;20046;-58
2023/05/03 02:43:04;;;;;;;7.70;4.10;;;5.00;99.90;;;;;;5104009;27;20070;-59
2023/05/03 02:45:30;;;;;;;6.50;4.78;;;5.00;99.90;;;;;;5108031;27;20032;-58
2023/05/03 02:47:55;;;;;;;9.00;4.53;;;5.10;99.90;;;;;;5095623;27;20027;-58
2023/05/03 02:50:21;;;;;;;8.52;5.05;;;5.10;99.90;;;;;;5101980;27;20031;-58
2023/05/03 02:52:46;;;;;;;8.90;4.68;;;5.10;99.90;;;;;;5100559;27;20109;-58
2023/05/03 02:55:12;;;;;;;7.93;4.47;;;5.10;99.90;;;;;;5096443;27;20084;-58
2023/05/03 02:57:38;;;;;;;10.45;4.53;;;5.30;99.90;;;;;;5101760;27;20056;-58
2023/05/03 03:00:05;;;;;;;9.98;4.70;;;5.00;99.90;;;;;;5106151;27;20059;-58
2023/05/03 03:02:30;;;;;;;9.40;4.72;;;5.00;99.90;;;;;;5081511;28;20031;-58
2023/05/03 03:04:56;;;;;;;7.72;4.90;;;4.90;99.90;;;;;;5081940;28;20471;-58
2023/05/03 03:07:21;;;;;;;11.05;5.32;;;4.90;99.90;;;;;;5098748;28;20036;-58
2023/05/03 03:09:47;;;;;;;9.10;5.20;;;5.00;99.90;;;;;;5103365;28;20038;-58
2023/05/03 03:12:12;;;;;;;9.02;5.25;;;5.20;99.90;;;;;;5098911;28;20043;-58
2023/05/03 03:14:38;;;;;;;10.63;5.43;;;5.20;99.90;;;;;;5085451;28;20040;-58
2023/05/03 03:17:07;;;;;;;9.52;5.53;;;5.20;99.90;;;;;;5100522;28;20032;-58
2023/05/03 03:19:33;;;;;;;8.32;4.70;;;5.00;99.90;;;;;;5100898;28;20554;-58
2023/05/03 03:21:58;;;;;;;8.55;5.22;;;5.00;99.90;;;;;;5092692;28;20126;-58
2023/05/03 03:24:24;;;;;;;8.45;5.10;;;4.90;99.90;;;;;;5101834;28;20590;-58
2023/05/03 03:26:49;;;;;;;10.43;5.05;;;5.10;99.90;;;;;;5104309;28;20715;-58
2023/05/03 03:29:15;;;;;;;9.13;5.47;;;5.00;99.90;;;;;;5095836;28;20414;-58
2023/05/03 03:31:41;;;;;;;8.57;5.45;;;5.00;99.90;;;;;;5101374;28;20093;-58
2023/05/03 03:34:06;;;;;;;11.73;5.50;;;5.30;99.90;;;;;;5099953;28;20036;-58
2023/05/03 03:36:32;;;;;;;10.38;5.15;;;5.10;99.90;;;;;;5106228;28;20508;-58
2023/05/03 03:38:57;;;;;;;16.15;5.45;;;5.00;99.90;;;;;;5097946;28;20947;-58
2023/05/03 03:41:23;;;;;;;14.18;5.43;;;5.10;99.90;;;;;;5103802;28;20249;-58
2023/05/03 03:43:48;;;;;;;9.68;5.25;;;5.00;99.90;;;;;;5104099;28;20036;-58
2023/05/03 03:46:15;;;;;;;8.02;5.47;;;5.00;99.90;;;;;;5101719;28;20125;-59
2023/05/03 03:48:41;;;;;;;8.73;5.03;;;5.10;99.90;;;;;;5101217;28;20032;-58
2023/05/03 03:51:07;;;;;;;10.60;5.38;;;5.00;99.90;;;;;;5109834;28;20054;-58
2023/05/03 03:53:32;;;;;;;8.45;5.13;;;5.10;99.90;;;;;;5102829;28;20685;-58
2023/05/03 03:55:58;;;;;;;14.88;5.80;;;5.20;99.90;;;;;;5092074;28;20036;-58
2023/05/03 03:58:23;;;;;;;11.38;5.50;;;5.50;99.90;;;;;;5100695;28;20039;-58
2023/05/03 04:00:50;;;;;;;13.05;5.43;;;5.00;99.90;;;;;;5101205;27;20113;-58
2023/05/03 04:03:16;;;;;;;9.88;5.53;;;5.20;99.90;;;;;;5095812;27;20036;-58
2023/05/03 04:05:41;;;;;;;13.13;5.65;;;5.30;99.90;;;;;;5103889;27;20138;-58
2023/05/03 04:08:07;;;;;;;11.68;5.55;;;5.40;99.90;;;;;;5109982;27;20028;-58
2023/05/03 04:10:33;;;;;;;13.32;6.00;;;5.40;99.90;;;;;;5107410;27;20297;-58
2023/05/03 04:12:58;;;;;;;14.93;6.32;;;5.40;99.90;;;;;;5104332;27;20039;-58
2023/05/03 04:15:24;;;;;;;13.82;6.38;;;5.40;99.90;;;;;;5106363;27;20028;-58
2023/05/03 04:17:49;;;;;;;12.77;6.40;;;5.20;99.90;;;;;;5099996;27;20521;-58
2023/05/03 04:20:17;;;;;;;11.38;5.80;;;5.40;99.90;;;;;;5102506;27;20044;-58
2023/05/03 04:22:42;;;;;;;14.43;5.90;;;5.30;99.90;;;;;;5100420;27;20471;-58
2023/05/03 04:25:12;;;;;;;7.20;5.22;;;5.40;99.90;;;;;;5077727;27;20039;-58
2023/05/03 04:27:38;;;;;;;16.45;6.55;;;5.30;99.90;;;;;;5105016;27;20031;-58
2023/05/03 04:30:05;;;;;;;9.82;5.90;;;5.20;99.90;;;;;;5101853;27;20048;-59
2023/05/03 04:32:35;;;;;;;13.43;6.53;;;5.20;99.90;;;;;;5107237;27;20027;-58
2023/05/03 04:35:09;;;;;;;11.30;6.28;;;5.30;99.90;;;;;;5092613;27;20031;-58
2023/05/03 04:37:35;;;;;;;11.10;6.13;;;5.10;99.90;;;;;;5108499;27;20098;-58
2023/05/03 04:40:03;;;;;;;16.90;6.50;;;5.00;99.90;;;;;;5105542;27;20400;-58
2023/05/03 04:42:30;;;;;;;9.18;5.82;;;4.90;99.90;;;;;;5108850;27;20126;-58
2023/05/03 04:44:56;;;;;;;15.00;7.00;;;4.90;99.90;;;;;;5113297;27;20114;-58
2023/05/03 04:47:21;;;;;;;9.77;5.63;;;5.00;99.90;;;;;;5089257;27;20035;-58
2023/05/03 04:49:47;;;;;;;11.57;6.13;;;5.00;99.90;;;;;;5105410;27;20068;-58
2023/05/03 04:52:13;;;;;;;10.70;6.57;;;4.90;99.90;;;;;;5108951;27;20042;-58
2023/05/03 04:54:38;;;;;;;10.88;6.43;;;4.90;99.90;;;;;;5112932;27;20032;-58
2023/05/03 04:57:04;;;;;;;9.35;6.28;;;4.90;99.90;;;;;;5103826;27;20035;-59
2023/05/03 04:59:30;;;;;;;10.75;6.50;;;4.90;99.90;;;;;;5084596;27;20035;-58
2023/05/03 05:01:55;;;;;;;13.18;6.57;;;5.00;99.90;;;;;;5103835;27;20188;-58
2023/05/03 05:04:21;;;;;;;13.88;6.63;;;5.20;99.90;;;;;;5104912;27;20156;-58
2023/05/03 05:06:46;;;;;;;14.90;6.88;;;5.50;99.90;;;;;;5099570;27;20043;-58
2023/05/03 05:09:23;;;;;;;16.17;7.00;;;5.60;99.90;;;;;;5093268;27;20239;-57
2023/05/03 05:11:49;;;;;;;12.55;7.30;;;5.60;99.90;;;;;;5099029;27;20134;-58
2023/05/03 05:14:15;;;;;;;12.80;7.30;;;5.70;99.90;;;;;;5097263;27;20117;-58
2023/05/03 05:16:40;;;;;;;16.63;7.70;;;5.90;99.90;;;;;;5119114;27;20069;-58
2023/05/03 05:19:06;;;;;;;17.92;7.60;;;6.00;99.90;;;;;;5112735;27;20091;-58
2023/05/03 05:21:32;;;;;;;16.40;7.68;;;6.10;99.90;;;;;;5104388;27;20144;-58
2023/05/03 05:23:58;;;;;;;15.63;7.45;;;6.10;99.90;;;;;;5091933;27;20064;-58
2023/05/03 05:26:24;;;;;;;12.57;7.28;;;6.10;99.90;;;;;;5097946;27;20143;-58
2023/05/03 05:28:50;;;;;;;13.18;7.15;;;6.30;99.90;;;;;;5115339;27;20494;-58
2023/05/03 05:31:16;;;;;;;15.00;7.43;;;6.30;99.90;;;;;;5112479;27;20177;-59
2023/05/03 05:33:41;;;;;;;18.98;7.85;;;6.40;99.90;;;;;;5097726;28;20039;-58
2023/05/03 05:36:07;;;;;;;18.52;8.88;;;6.50;99.90;;;;;;5109418;27;20052;-58
2023/05/03 05:38:33;;;;;;;12.70;8.23;;;6.70;99.90;;;;;;5110778;27;20035;-58
2023/05/03 05:40:58;;;;;;;13.20;7.72;;;6.60;99.90;;;;;;5099957;27;20085;-59
2023/05/03 05:43:24;;;;;;;16.55;8.02;;;6.70;99.90;;;;;;5089190;27;20355;-58
2023/05/03 05:45:49;;;;;;;19.30;8.55;;;6.70;99.90;;;;;;5105841;27;20423;-58
2023/05/03 05:48:15;;;;;;;18.40;7.88;;;6.80;99.90;;;;;;5105590;27;20035;-58
2023/05/03 05:50:41;;;;;;;15.35;7.68;;;6.90;99.90;;;;;;5103059;27;20075;-58
2023/05/03 05:53:07;;;;;;;19.55;8.50;;;6.90;99.90;;;;;;5097399;27;20044;-59
2023/05/03 05:55:33;;;;;;;18.17;8.13;;;7.00;99.90;;;;;;5104661;27;20020;-58
2023/05/03 05:57:59;;;;;;;16.52;8.20;;;7.10;99.90;;;;;;5102524;27;20454;-58
2023/05/03 06:00:25;;;;;;;17.40;8.60;;;7.30;99.90;;;;;;5104392;27;20087;-58
2023/05/03 06:02:51;;;;;;;17.45;8.30;;;7.50;99.90;;;;;;5108498;27;20035;-58
2023/05/03 06:05:16;;;;;;;18.00;7.85;;;7.50;99.90;;;;;;5105765;27;20031;-58
2023/05/03 06:07:42;;;;;;;16.00;7.55;;;7.80;99.90;;;;;;5105732;27;20032;-58
2023/05/03 06:10:08;;;;;;;14.98;7.97;;;7.70;99.90;;;;;;5097534;27;20123;-58
2023/05/03 06:12:35;;;;;;;11.90;6.88;;;7.90;99.90;;;;;;5082315;27;20563;-58
2023/05/03 06:15:01;;;;;;;15.65;7.45;;;8.00;99.90;;;;;;5097711;27;20079;-58
2023/05/03 06:17:27;;;;;;;16.00;6.90;;;8.20;99.90;;;;;;5118314;27;20307;-59
2023/05/03 06:19:52;;;;;;;17.05;7.72;;;8.30;99.90;;;;;;5103672;27;20655;-58
2023/05/03 06:22:18;;;;;;;13.45;7.45;;;8.30;99.90;;;;;;5105805;27;20146;-59
2023/05/03 06:24:43;;;;;;;10.57;6.95;;;8.20;99.90;;;;;;5101862;28;20036;-59
2023/05/03 06:27:09;;;;;;;14.18;7.07;;;8.30;99.90;;;;;;5102906;27;20348;-58
2023/05/03 06:29:36;;;;;;;16.13;6.70;;;8.30;99.90;;;;;;5097469;27;20680;-58
2023/05/03 06:32:01;;;;;;;15.32;6.68;;;8.50;99.90;;;;;;5099139;28;20047;-59
2023/05/03 06:34:27;;;;;;;11.82;6.90;;;8.50;99.90;;;;;;5103777;27;20028;-59
2023/05/03 06:36:54;;;;;;;12.95;6.70;;;8.70;99.90;;;;;;5107435;27;20024;-59
2023/05/03 06:39:19;;;;;;;12.25;7.10;;;8.80;99.90;;;;;;5099174;28;20127;-58
2023/05/03 06:41:45;;;;;;;15.05;7.13;;;8.60;99.90;;;;;;5105166;27;20127;-59
2023/05/03 06:44:10;;;;;;;9.65;6.30;;;8.70;99.90;;;;;;5111734;27;20035;-58
2023/05/03 06:46:36;;;;;;;14.23;6.68;;;8.90;99.90;;;;;;5096349;27;20396;-58
2023/05/03 06:49:02;;;;;;;13.05;7.03;;;9.10;99.90;;;;;;5099093;27;20035;-58
2023/05/03 06:51:29;;;;;;;12.05;6.63;;;9.10;99.90;;;;;;5102758;28;20096;-58
2023/05/03 06:53:56;;;;;;;8.30;6.05;;;9.10;99.90;;;;;;5099329;28;20031;-58
2023/05/03 06:56:22;;;;;;;10.57;5.97;;;9.00;99.90;;;;;;5098587;28;20139;-59
2023/05/03 06:58:49;;;;;;;11.73;6.65;;;9.20;99.90;;;;;;5105554;27;20042;-58
2023/05/03 07:01:16;;;;;;;13.18;6.45;;;9.20;99.90;;;;;;5083950;28;20039;-59
2023/05/03 07:03:41;;;;;;;8.48;5.70;;;9.40;99.90;;;;;;5098932;27;20599;-59
2023/05/03 07:06:07;;;;;;;15.60;7.07;;;9.50;99.90;;;;;;5101660;28;20036;-59
2023/05/03 07:08:32;;;;;;;11.15;5.93;;;9.70;99.90;;;;;;5100737;28;20031;-59
2023/05/03 07:10:58;;;;;;;10.05;5.70;;;9.70;99.90;;;;;;5098690;28;20047;-58
2023/05/03 07:13:24;;;;;;;8.30;5.63;;;9.40;99.90;;;;;;5106436;28;20481;-58
2023/05/03 07:15:49;;;;;;;9.52;5.57;;;9.40;99.90;;;;;;5105038;28;20230;-58
2023/05/03 07:18:15;;;;;;;12.55;4.85;;;9.60;99.90;;;;;;5098860;28;20348;-59
2023/05/03 07:20:41;;;;;;;9.40;5.18;;;9.90;99.90;;;;;;5093448;28;20038;-59
2023/05/03 07:23:06;;;;;;;7.60;5.00;;;10.00;99.90;;;;;;5099612;28;20287;-59
2023/05/03 07:25:32;;;;;;;12.27;5.47;;;9.90;99.90;;;;;;5100697;28;20040;-59
2023/05/03 07:27:58;;;;;;;9.90;5.05;;;10.00;99.90;;;;;;5099897;27;20129;-59
2023/05/03 07:30:24;;;;;;;10.13;5.40;;;9.90;99.90;;;;;;5108717;28;20425;-59
2023/05/03 07:32:49;;;;;;;10.75;5.45;;;10.20;99.90;;;;;;5084060;27;20800;-58
2023/05/03 07:35:15;;;;;;;8.85;4.57;;;10.10;99.90;;;;;;5093016;27;20063;-59
2023/05/03 07:37:41;;;;;;;10.15;5.03;;;10.10;99.90;;;;;;5105691;27;20027;-58
2023/05/03 07:40:11;;;;;;;8.68;4.93;;;10.00;99.90;;;;;;5103144;27;20039;-58
2023/05/03 07:42:37;;;;;;;9.05;4.95;;;10.20;99.90;;;;;;5112323;27;20114;-59
2023/05/03 07:45:02;;;;;;;8.05;4.55;;;10.30;99.90;;;;;;5107390;27;20425;-59
2023/05/03 07:47:28;;;;;;;9.35;4.45;;;10.50;99.90;;;;;;5099322;27;20047;-59
2023/05/03 07:49:54;;;;;;;7.30;4.07;;;10.70;99.90;;;;;;5101886;27;20310;-58
2023/05/03 07:52:19;;;;;;;8.65;4.95;;;10.70;99.90;;;;;;5098410;27;20039;-59
2023/05/03 07:54:45;;;;;;;8.82;3.42;;;10.80;99.90;;;;;;5097062;27;20036;-59
2023/05/03 07:57:15;;;;;;;7.68;4.00;;;11.00;99.90;;;;;;5079008;27;20062;-59
2023/05/03 07:59:42;;;;;;;12.52;4.55;;;11.10;99.90;;;;;;5101667;27;20063;-59
2023/05/03 08:02:08;;;;;;;7.80;3.85;;;11.30;99.90;;;;;;5100498;27;20187;-59
2023/05/03 08:04:34;;;;;;;9.68;3.58;;;11.40;99.90;;;;;;5100339;27;20043;-59
2023/05/03 08:07:01;;;;;;;5.97;3.58;;;11.40;99.90;;;;;;5094622;27;20032;-59
2023/05/03 08:09:27;;;;;;;13.15;4.93;;;11.50;99.90;;;;;;5100373;27;20175;-59
2023/05/03 08:11:53;;;;;;;7.60;3.75;;;11.40;99.90;;;;;;5103545;27;20096;-58
2023/05/03 08:14:19;;;;;;;6.80;3.60;;;11.40;99.90;;;;;;5100919;27;20039;-59
2023/05/03 08:16:45;;;;;;;5.45;3.30;;;11.50;99.90;;;;;;5099607;27;20358;-59
2023/05/03 08:19:10;;;;;;;10.60;4.35;;;11.50;99.90;;;;;;5107854;27;20038;-58
2023/05/03 08:21:36;;;;;;;12.32;6.45;;;11.40;99.90;;;;;;5111779;27;20417;-59
2023/05/03 08:24:04;;;;;;;6.80;3.45;;;11.50;99.90;;;;;;5100234;27;20043;-59
2023/05/03 08:26:30;;;;;;;6.80;3.78;;;11.40;99.90;;;;;;5101937;27;20446;-59
2023/05/03 08:28:56;;;;;;;10.32;4.43;;;11.40;99.90;;;;;;5097995;27;20063;-59
2023/05/03 08:31:21;;;;;;;8.65;3.75;;;11.70;99.90;;;;;;5104041;27;20036;-59
2023/05/03 08:33:47;;;;;;;6.32;3.17;;;11.80;99.90;;;;;;5109187;27;20062;-59
2023/05/03 08:36:13;;;;;;;6.20;3.15;;;11.60;99.90;;;;;;5109232;27;20648;-59
2023/05/03 08:38:40;;;;;;;7.45;3.75;;;11.90;99.90;;;;;;5099596;27;20028;-58
2023/05/03 08:41:17;;;;;;;11.18;4.20;;;11.90;99.90;;;;;;5101099;27;20395;-58
2023/05/03 08:43:46;;;;;;;9.20;4.03;;;11.50;99.90;;;;;;5111400;27;20053;-59
2023/05/03 08:46:12;;;;;;;11.27;4.20;;;11.90;99.90;;;;;;5106710;27;20041;-59
2023/05/03 08:48:38;;;;;;;8.43;4.05;;;12.10;99.90;;;;;;5114093;27;20133;-59
2023/05/03 08:51:04;;;;;;;10.80;4.32;;;12.30;99.90;;;;;;5100408;27;20111;-59
2023/05/03 08:53:29;;;;;;;5.82;3.65;;;12.30;99.90;;;;;;5108300;27;20042;-59
2023/05/03 08:55:55;;;;;;;6.82;3.45;;;12.30;99.90;;;;;;5094506;27;20039;-59
2023/05/03 08:58:21;;;;;;;7.82;3.75;;;12.30;99.90;;;;;;5099166;27;21522;-59
2023/05/03 09:00:46;;;;;;;7.97;4.07;;;12.10;99.90;;;;;;5103034;27;20058;-59
2023/05/03 09:03:12;;;;;;;7.00;3.95;;;12.40;99.90;;;;;;5102469;27;20118;-59
2023/05/03 09:05:39;;;;;;;9.32;4.20;;;12.50;99.90;;;;;;5105056;27;20195;-59
2023/05/03 09:08:04;;;;;;;10.90;4.63;;;12.60;99.90;;;;;;5099949;27;20045;-59
2023/05/03 09:10:31;;;;;;;7.75;4.57;;;12.30;99.90;;;;;;5107357;27;20040;-59
2023/05/03 09:13:00;;;;;;;7.47;4.20;;;12.30;99.90;;;;;;5108877;27;20037;-58
2023/05/03 09:15:28;;;;;;;9.93;4.30;;;12.30;99.90;;;;;;5098427;27;20036;-59
2023/05/03 09:18:18;;;;;;;6.88;4.00;;;12.40;99.90;;;;;;5096175;27;20097;-59
2023/05/03 09:20:51;;;;;;;8.52;4.55;;;12.00;99.90;;;;;;5106023;27;20382;-60
2023/05/03 09:23:30;;;;;;;8.00;4.72;;;12.40;99.90;;;;;;5095910;27;20045;-59
2023/05/03 09:25:56;;;;;;;9.98;4.55;;;12.60;99.90;;;;;;5100184;27;20035;-59
2023/05/03 09:28:22;;;;;;;13.70;4.55;;;12.60;99.90;;;;;;5088626;27;20556;-59
2023/05/03 09:30:49;;;;;;;7.50;4.43;;;12.70;99.90;;;;;;5105421;27;20031;-59
2023/05/03 09:33:21;;;;;;;7.85;4.47;;;12.80;99.90;;;;;;5112243;27;20039;-59
2023/05/03 09:35:58;;;;;;;7.50;4.57;;;12.90;99.90;;;;;;5101174;27;20062;-59
2023/05/03 09:38:29;;;;;;;7.35;3.97;;;13.10;99.90;;;;;;5100942;27;20027;-59
2023/05/03 09:40:55;;;;;;;6.45;4.10;;;13.20;99.90;;;;;;5095807;27;20031;-58
2023/05/03 09:43:21;;;;;;;8.05;4.85;;;12.40;99.90;;;;;;5091798;27;20121;-59
2023/05/03 09:45:47;;;;;;;9.75;5.75;;;12.60;99.90;;;;;;5095073;28;20025;-59
2023/05/03 09:48:13;;;;;;;8.75;4.68;;;13.00;99.90;;;;;;5095318;27;20126;-59
2023/05/03 09:50:40;;;;;;;9.73;4.57;;;13.30;99.90;;;;;;5092914;27;20093;-59
2023/05/03 09:53:06;;;;;;;10.57;4.50;;;13.50;99.90;;;;;;5092851;27;20043;-59
2023/05/03 09:55:39;;;;;;;9.23;4.30;;;13.50;99.90;;;;;;5094453;27;20036;-59
2023/05/03 09:58:06;;;;;;;9.00;5.32;;;13.20;99.90;;;;;;5088858;27;20482;-59
2023/05/03 10:00:42;;;;;;;10.73;4.93;;;13.20;99.90;;;;;;5093722;27;20652;-59
2023/05/03 10:03:17;;;;;;;10.07;4.97;;;13.20;99.90;;;;;;5092854;27;20070;-59
2023/05/03 10:05:45;;;;;;;11.98;5.10;;;13.20;99.90;;;;;;5087450;27;20032;-59
2023/05/03 10:08:36;;;;;;;8.65;4.95;;;13.00;99.90;;;;;;5095569;28;20036;-59
2023/05/03 10:11:06;;;;;;;11.57;4.85;;;13.00;99.90;;;;;;5096821;27;20130;-59
2023/05/03 10:13:32;;;;;;;7.00;4.38;;;13.30;99.90;;;;;;5101735;27;20482;-59
2023/05/03 10:16:12;;;;;;;9.35;4.80;;;13.20;99.90;;;;;;5096495;27;20027;-59
2023/05/03 10:18:46;;;;;;;9.30;4.70;;;13.20;99.90;;;;;;5098575;27;20134;-59
2023/05/03 10:21:20;;;;;;;9.32;4.93;;;13.10;99.90;;;;;;5094988;27;20034;-59
2023/05/03 10:24:11;;;;;;;13.68;5.18;;;13.30;99.90;;;;;;5089221;27;20046;-58
2023/05/03 10:26:40;;;;;;;9.35;4.80;;;13.40;99.90;;;;;;5090790;28;20625;-59
2023/05/03 10:29:26;;;;;;;10.65;5.00;;;13.30;99.90;;;;;;5091999;28;21372;-59
2023/05/03 10:31:52;;;;;;;6.72;4.70;;;13.60;99.90;;;;;;5096406;28;20039;-59
2023/05/03 10:34:29;;;;;;;8.10;4.63;;;13.50;99.90;;;;;;5097775;27;20061;-59
2023/05/03 10:36:54;;;;;;;8.23;4.40;;;13.50;99.90;;;;;;5086411;28;20141;-59
2023/05/03 10:39:21;;;;;;;8.77;4.25;;;13.50;99.90;;;;;;5093401;28;20032;-58
2023/05/03 10:42:01;;;;;;;9.23;4.40;;;13.40;99.90;;;;;;5093311;27;20130;-59
2023/05/03 10:44:33;;;;;;;6.88;4.03;;;13.40;99.90;;;;;;5094781;27;21552;-59
2023/05/03 10:47:11;;;;;;;5.68;4.10;;;13.60;99.90;;;;;;5095968;27;20561;-58
2023/05/03 10:49:37;;;;;;;7.97;4.35;;;13.20;99.90;;;;;;5090539;28;20120;-59
2023/05/03 10:52:02;;;;;;;7.80;3.97;;;13.20;99.90;;;;;;5092160;27;20115;-59
2023/05/03 10:54:28;;;;;;;8.15;4.55;;;13.20;99.90;;;;;;5088176;28;20401;-59
2023/05/03 10:56:55;;;;;;;8.23;4.75;;;13.60;99.90;;;;;;5078100;28;20039;-59
2023/05/03 10:59:22;;;;;;;11.25;4.95;;;13.40;99.90;;;;;;5100346;27;20118;-59
2023/05/03 11:01:50;;;;;;;6.82;4.20;;;13.60;99.90;;;;;;5079841;28;20043;-59
2023/05/03 11:04:22;;;;;;;13.43;4.55;;;13.50;99.90;;;;;;5090081;28;20039;-59
2023/05/03 11:06:50;;;;;;;7.45;3.85;;;13.50;99.90;;;;;;5100599;27;20031;-59
2023/05/03 11:09:16;;;;;;;7.03;4.22;;;13.80;99.90;;;;;;5094733;27;20123;-59
2023/05/03 11:11:42;;;;;;;10.52;4.53;;;13.70;99.90;;;;;;5097124;28;20452;-59
2023/05/03 11:14:08;;;;;;;9.82;5.03;;;13.50;99.90;;;;;;5097884;28;20039;-59
2023/05/03 11:16:45;;;;;;;8.02;4.30;;;13.40;99.90;;;;;;5094430;28;20093;-59
2023/05/03 11:19:12;;;;;;;13.50;4.72;;;13.50;99.90;;;;;;5094712;28;20078;-59
2023/05/03 11:21:37;;;;;;;10.57;4.82;;;13.60;99.90;;;;;;5094856;28;20394;-59
2023/05/03 11:24:04;;;;;;;6.80;4.43;;;13.80;99.90;;;;;;5097447;28;20036;-59
2023/05/03 11:26:35;;;;;;;10.55;4.40;;;14.00;99.90;;;;;;5096838;28;20107;-59
2023/05/03 11:29:00;;;;;;;9.20;4.50;;;13.90;99.90;;;;;;5092520;28;20123;-59
2023/05/03 11:31:26;;;;;;;8.50;4.05;;;13.80;99.90;;;;;;5099633;28;20785;-59
2023/05/03 11:33:52;;;;;;;7.45;4.82;;;14.10;99.90;;;;;;5094630;28;20141;-59
2023/05/03 11:36:17;;;;;;;8.15;4.20;;;14.00;99.90;;;;;;5100568;28;20650;-59
2023/05/03 11:38:44;;;;;;;8.65;4.10;;;14.10;99.90;;;;;;5097610;28;20115;-59
2023/05/03 11:41:17;;;;;;;7.28;4.05;;;14.20;99.90;;;;;;5094483;27;20058;-59
2023/05/03 11:43:48;;;;;;;7.00;4.20;;;14.00;99.90;;;;;;5094171;28;20070;-59
2023/05/03 11:46:21;;;;;;;10.43;4.13;;;14.20;99.90;;;;;;5090320;28;20464;-59
2023/05/03 11:48:46;;;;;;;8.80;4.40;;;13.80;99.90;;;;;;5104887;27;20401;-59
2023/05/03 11:51:12;;;;;;;7.93;4.40;;;13.80;99.90;;;;;;5104879;27;20107;-58
2023/05/03 11:53:43;;;;;;;6.75;4.68;;;13.90;99.90;;;;;;5099162;28;20118;-59
2023/05/03 11:56:14;;;;;;;8.13;3.78;;;14.00;99.90;;;;;;5100439;28;20101;-59
2023/05/03 11:58:57;;;;;;;8.00;4.43;;;14.00;99.90;;;;;;5100839;28;20390;-59
2023/05/03 12:01:24;;;;;;;9.65;3.85;;;13.90;99.90;;;;;;5104611;28;20122;-59
2023/05/03 12:03:55;;;;;;;8.20;3.72;;;14.00;99.90;;;;;;5099203;28;20088;-59
2023/05/03 12:06:21;;;;;;;5.78;3.20;;;14.00;99.90;;;;;;5083327;28;20061;-59
2023/05/03 12:08:47;;;;;;;8.27;3.88;;;14.30;99.90;;;;;;5098009;27;20127;-59
2023/05/03 12:11:13;;;;;;;8.15;3.95;;;14.00;99.90;;;;;;5100301;28;20130;-59
2023/05/03 12:13:39;;;;;;;6.32;3.78;;;14.00;99.90;;;;;;5096401;28;20064;-59
2023/05/03 12:16:06;;;;;;;10.73;4.65;;;14.30;99.90;;;;;;5098628;28;20775;-59
2023/05/03 12:19:01;;;;;;;8.70;4.72;;;14.30;99.90;;;;;;5072082;28;20035;-59
2023/05/03 12:21:43;;;;;;;8.40;4.25;;;14.20;99.90;;;;;;5098726;27;20115;-60
2023/05/03 12:24:08;;;;;;;7.32;3.42;;;14.40;99.90;;;;;;5090869;27;20172;-59
2023/05/03 12:26:34;;;;;;;8.25;3.70;;;14.30;99.90;;;;;;5099884;27;20039;-59
2023/05/03 12:29:00;;;;;;;6.20;3.72;;;14.30;99.90;;;;;;5102659;27;20088;-59
2023/05/03 12:31:27;;;;;;;7.07;3.95;;;14.30;99.90;;;;;;5094723;27;20880;-59
2023/05/03 12:33:52;;;;;;;7.55;4.28;;;14.40;99.90;;;;;;5093291;27;20399;-59
2023/05/03 12:36:18;;;;;;;7.07;4.10;;;14.60;99.90;;;;;;5109087;27;20036;-59
2023/05/03 12:38:44;;;;;;;8.10;3.90;;;14.50;99.90;;;;;;5111401;27;20070;-59
2023/05/03 12:41:10;;;;;;;11.85;4.28;;;14.50;99.90;;;;;;5106243;27;20054;-59
2023/05/03 12:43:36;;;;;;;10.98;4.18;;;14.60;99.90;;;;;;5080664;28;20360;-59
2023/05/03 12:46:02;;;;;;;8.10;3.63;;;14.70;99.90;;;;;;5104485;27;20031;-59
2023/05/03 12:48:29;;;;;;;6.45;4.10;;;14.70;99.90;;;;;;5095224;28;20031;-59